Engelhartszell, Austria

7:13 PM CET on February 19, 2017 (GMT +0100)
Sankt Aegidi | | Change Station

Elev 1936 ft 48.48 °N, 13.74 °E | Updated 16 seconds ago

Overcast
Overcast
31.6 °F
Feels Like 32 °F
N
1.8
Wind Variable Wind from NW
Gusts 2.5 mph

Today
High -- | Low -- °F
--% Chance of Precip.
Yesterday
High -- | Low -- °F
Precip. -- in
Pressure 30.18 in
Visibility 5.6 miles
Clouds Few 18000 ft
Mostly Cloudy 20000 ft
Windchill 32 °F
Dew Point 30 °F
Humidity 95%
Rainfall 0.00 in
Snow Depth Not available.
7:05 AM 5:33 PM
Last Quarter, 41% visible
METAR LOWL 191750Z AUTO 24004KT 9000 FEW180 BKN200 03/00 Q1022 NOSIG
Pressure 30.18 in
Visibility 5.6 miles
Clouds Few 18000 ft
Mostly Cloudy 20000 ft
Windchill 32 °F
Dew Point 30 °F
Humidity 95%
Rainfall 0.00 in
Snow Depth Not available.
7:05 AM 5:33 PM
Last Quarter, 41% visible
METAR LOWL 191750Z AUTO 24004KT 9000 FEW180 BKN200 03/00 Q1022 NOSIG

Get Your Daily Forecast Email!

Thanks for signing up!

Be on the lookout for a verification email in your inbox.

You'll start receiving the daily forecast at 8 AM.

×

10-Day Weather Forecast

×

Almanac

Astronomy

Feb. 19, 2017 Rise Set
Actual Time
Civil Twilight
Nautical Twilight
Astronomical Twilight
Moon
Length of Visible Light
Length of Day
Tomorrow will be .
, % of the Moon is Illuminated

Today's Extremes

Country Highs Country Lows

Community

WunderPhotos

Upload Photos

1,962,540 photos uploaded!

WunderBlog® & News

Nearby

Air Quality

  Air Quality AQ Index Pollutant
Not available.

Snow Depth

Station Depth Elevation

Earthquake Activity

City Distance Mag. Time & Date
Minimum magnitude displayed is 2.5.

Coastal Water Temperatures

Place Temperature

Stations

Nearby Weather Stations

Station Location Temp. Windchill Dew Point Humidity Wind Precip. Elev Updated Type